• Join FlightAware (Why Join?)
  • Login
  • US Flag 
08:52PM EDT


 

Airport Tracker/Info


-or-


 

Live Flight TrackerFlight Track Log ✈ SKW4841 ✈ 28-Apr-2013 ✈ KPHX - KLAX

Flight Track Log - Related Links

Times and Time Zones

All times are in EDT time to prevent confusion due to time zone crossing. See the SKW4841 flight status page for this flight to view local times or setup timezone preferences in your user account.

Time Position Orientation Groundspeed Altitude Reporting Facility
EDT Latitude Longitude Course Direction KTS MPH feet Rate Location/Type
10:34PM 33.4333 -112.0333 292° West 162 186 1,700  Level Phoenix TRACON
10:34PM 33.4339 -112.0686 271° West 176 203 2,800 1,500 Climbing Albuquerque Center
10:35PM 33.4122 -112.1378 249° West 218 251 4,400 1,860 Climbing Albuquerque Center
10:36PM 33.4345 -112.4114 273° West  Level FlightAware Approximate
10:36PM 33.3856 -112.2231 249° West 268 308 6,700  Level Albuquerque Center
10:37PM 33.4401 -112.5484 273° West  Level FlightAware Approximate
10:37PM 33.3953 -112.3117 278° West 277 319 9,300  Level Albuquerque Center
10:38PM 33.4455 -112.6854 273° West  Level FlightAware Approximate
10:38PM 33.4194 -112.4036 288° West 288 331 11,100  Level Albuquerque Center
10:39PM 33.4518 -112.8221 292° West  Level FlightAware Approximate
10:39PM 33.4467 -112.5144 286° West 346 398 12,400  Level Albuquerque Center
10:40PM 33.4511 -112.6450 272° West 368 423 14,500 1,740 Climbing Albuquerque Center
10:41PM 33.4531 -112.7767 271° West 387 445 16,000 1,800 Climbing Albuquerque Center
10:42PM 33.4836 -112.9075 286° West 409 471 18,200 2,220 Climbing Albuquerque Center
10:43PM 33.5278 -113.0306 293° West 406 467 20,600 2,040 Climbing Albuquerque Center
10:45PM 33.5794 -113.1742 293° West 395 455 22,500 1,440 Climbing Albuquerque Center
10:46PM 33.6247 -113.3014 293° West 409 471 23,600 1,080 Climbing Albuquerque Center
10:47PM 33.6703 -113.4292 293° West 423 487 24,700 1,020 Climbing Albuquerque Center
10:48PM 33.7178 -113.5639 293° West 433 498 25,800 1,020 Climbing Albuquerque Center
10:49PM 33.7661 -113.7017 293° West 442 509 26,900 1,080 Climbing Albuquerque Center
10:50PM 33.8150 -113.8408 293° West 449 517 28,000 1,080 Climbing Albuquerque Center
10:51PM 33.8642 -113.9808 293° West 453 521 29,100 1,020 Climbing Albuquerque Center
10:52PM 33.9022 -114.1256 288° West 454 522 30,200 1,020 Climbing Albuquerque Center
10:53PM 33.9192 -114.2764 278° West 451 519 31,300 840 Climbing Albuquerque Center
10:54PM 33.9450 -114.4550 280° West 453 521 32,000 540 Climbing Albuquerque Center
10:54PM 33.9500 -114.4919 279° West 457 526 32,000  Level Los Angeles Center
10:55PM 33.9714 -114.6478 279° West 471 542 32,000  Level Los Angeles Center
10:56PM 33.9922 -114.8019 279° West 470 541 32,000  Level Los Angeles Center
10:57PM 34.0106 -114.9553 278° West 464 534 32,000  Level Los Angeles Center
10:58PM 34.0314 -115.1056 280° West 459 528 32,000  Level Los Angeles Center
10:59PM 34.0492 -115.2575 278° West 461 531 32,000  Level Los Angeles Center
11:00PM 34.0728 -115.4397 279° West 461 531 32,000  Level Los Angeles Center
11:01PM 34.0922 -115.5928 279° West 463 533 32,000  Level Los Angeles Center
11:02PM 34.1089 -115.7461 278° West 464 534 32,000  Level Los Angeles Center
11:03PM 34.0939 -115.8969 263° West 461 531 32,000  Level Los Angeles Center
11:04PM 34.0708 -116.0514 260° West 467 537 32,000 -300 Level Los Angeles Center
11:05PM 34.0486 -116.2025 260° West 462 532 31,500 -1,380 Descending Los Angeles Center
11:06PM 34.0275 -116.3406 260° West 430 495 29,200 -2,520 Descending Los Angeles Center
11:07PM 34.0044 -116.4956 260° West 398 458 26,400 -2,520 Descending Los Angeles Center
11:08PM 33.9950 -116.6258 265° West 394 453 24,100 -2,280 Descending Los Angeles Center
11:09PM 33.9839 -116.7517 264° West 383 441 21,800 -2,100 Descending Los Angeles Center
11:10PM 33.9747 -116.8717 265° West 366 421 19,900 -1,800 Descending Los Angeles Center
11:11PM 33.9647 -116.9881 264° West 355 409 18,100 -1,440 Descending Los Angeles Center
11:12PM 33.9550 -117.1022 264° West 347 399 17,000 -780 Descending Los Angeles Center
11:13PM 33.9500 -117.1500 263° West 340 391 17,100 -120 Climbing Southern California TRACON
11:14PM 33.9500 -117.2500 270° West 353 406 16,900 -420 Descending Southern California TRACON
11:15PM 33.9333 -117.3667 260° West 335 386 16,400 -1,440 Descending Southern California TRACON
11:16PM 33.9667 -117.4833 289° West 332 382 13,900 -1,980 Descending Southern California TRACON
11:17PM 34.0000 -117.5833 292° West 325 374 12,300 -1,620 Descending Southern California TRACON
11:18PM 34.0167 -117.6667 284° West 320 368 10,900 -1,500 Descending Southern California TRACON
11:19PM 34.0167 -117.7833 270° West 283 326 9,300 -1,320 Descending Southern California TRACON
11:20PM 34.0000 -117.8667 256° West 262 302 8,300 -900 Descending Southern California TRACON
11:21PM 34.0000 -117.9333 270° West 220 253 7,600 -840 Descending Southern California TRACON
11:22PM 34.0000 -118.0000 270° West 195 224 6,700 -960 Descending Southern California TRACON
11:23PM 33.9833 -118.0667 253° West 198 228 5,700 -1,080 Descending Southern California TRACON
11:24PM 33.9833 -118.1333 270° West 187 215 4,600 -960 Descending Southern California TRACON
11:25PM 33.9764 -118.1797 260° West 184 212 3,700 -960 Descending Los Angeles Center
11:26PM 33.9675 -118.2497 261° West 179 206 2,600 -900 Descending Los Angeles Center
11:27PM 33.9628 -118.3008 264° West 168 193 1,900 -720 Descending Los Angeles Center